sensor_id;sensor_type;location;lat;lon;timestamp;P1;durP1;ratioP1;P2;durP2;ratioP2
53267;SDS011;39156;51.176;6.738;2023-02-15T00:01:38;64.03;;;59.03;;
53267;SDS011;39156;51.176;6.738;2023-02-15T00:04:04;63.90;;;59.00;;
53267;SDS011;39156;51.176;6.738;2023-02-15T00:06:32;62.58;;;57.78;;
53267;SDS011;39156;51.176;6.738;2023-02-15T00:08:58;61.22;;;56.60;;
53267;SDS011;39156;51.176;6.738;2023-02-15T00:11:24;64.25;;;59.30;;
53267;SDS011;39156;51.176;6.738;2023-02-15T00:14:09;64.50;;;59.40;;
53267;SDS011;39156;51.176;6.738;2023-02-15T00:16:41;64.45;;;59.35;;
53267;SDS011;39156;51.176;6.738;2023-02-15T00:19:08;64.53;;;59.50;;
53267;SDS011;39156;51.176;6.738;2023-02-15T00:24:03;63.35;;;58.25;;
53267;SDS011;39156;51.176;6.738;2023-02-15T00:26:31;66.38;;;61.28;;
53267;SDS011;39156;51.176;6.738;2023-02-15T00:28:57;62.78;;;57.92;;
53267;SDS011;39156;51.176;6.738;2023-02-15T00:31:24;66.30;;;60.88;;
53267;SDS011;39156;51.176;6.738;2023-02-15T00:33:50;65.25;;;60.08;;
53267;SDS011;39156;51.176;6.738;2023-02-15T00:36:16;67.65;;;62.25;;
53267;SDS011;39156;51.176;6.738;2023-02-15T00:38:42;64.90;;;59.55;;
53267;SDS011;39156;51.176;6.738;2023-02-15T00:41:08;67.18;;;61.72;;
53267;SDS011;39156;51.176;6.738;2023-02-15T00:43:35;66.30;;;60.58;;
53267;SDS011;39156;51.176;6.738;2023-02-15T00:46:02;66.05;;;60.65;;
53267;SDS011;39156;51.176;6.738;2023-02-15T00:48:29;65.00;;;59.83;;
53267;SDS011;39156;51.176;6.738;2023-02-15T00:50:56;65.32;;;60.03;;
53267;SDS011;39156;51.176;6.738;2023-02-15T00:53:24;65.00;;;59.50;;
53267;SDS011;39156;51.176;6.738;2023-02-15T00:55:50;66.68;;;61.25;;
53267;SDS011;39156;51.176;6.738;2023-02-15T00:58:16;67.80;;;62.10;;
53267;SDS011;39156;51.176;6.738;2023-02-15T01:00:43;66.07;;;60.63;;
53267;SDS011;39156;51.176;6.738;2023-02-15T01:03:11;68.05;;;62.30;;
53267;SDS011;39156;51.176;6.738;2023-02-15T01:05:38;66.93;;;61.22;;
53267;SDS011;39156;51.176;6.738;2023-02-15T01:08:04;67.95;;;62.25;;
53267;SDS011;39156;51.176;6.738;2023-02-15T01:10:30;67.68;;;62.08;;
53267;SDS011;39156;51.176;6.738;2023-02-15T01:12:56;69.72;;;63.75;;
53267;SDS011;39156;51.176;6.738;2023-02-15T01:15:22;66.47;;;60.97;;
53267;SDS011;39156;51.176;6.738;2023-02-15T01:17:48;67.30;;;61.57;;
53267;SDS011;39156;51.176;6.738;2023-02-15T01:20:17;66.20;;;60.90;;
53267;SDS011;39156;51.176;6.738;2023-02-15T01:22:51;65.32;;;59.97;;
53267;SDS011;39156;51.176;6.738;2023-02-15T01:25:19;67.53;;;62.13;;
53267;SDS011;39156;51.176;6.738;2023-02-15T01:27:46;65.22;;;59.92;;
53267;SDS011;39156;51.176;6.738;2023-02-15T01:32:39;69.00;;;63.40;;
53267;SDS011;39156;51.176;6.738;2023-02-15T01:35:05;66.17;;;60.80;;
53267;SDS011;39156;51.176;6.738;2023-02-15T01:37:31;65.32;;;60.15;;
53267;SDS011;39156;51.176;6.738;2023-02-15T01:39:58;65.43;;;59.85;;
53267;SDS011;39156;51.176;6.738;2023-02-15T01:42:25;63.55;;;58.55;;
53267;SDS011;39156;51.176;6.738;2023-02-15T01:45:04;66.18;;;60.58;;
53267;SDS011;39156;51.176;6.738;2023-02-15T01:48:35;68.22;;;62.97;;
53267;SDS011;39156;51.176;6.738;2023-02-15T01:50:58;65.80;;;60.53;;
53267;SDS011;39156;51.176;6.738;2023-02-15T01:56:36;67.22;;;61.63;;
53267;SDS011;39156;51.176;6.738;2023-02-15T01:59:06;63.90;;;58.90;;
53267;SDS011;39156;51.176;6.738;2023-02-15T02:01:38;67.38;;;61.88;;
53267;SDS011;39156;51.176;6.738;2023-02-15T02:06:29;64.55;;;59.22;;
53267;SDS011;39156;51.176;6.738;2023-02-15T02:08:57;64.80;;;59.72;;
53267;SDS011;39156;51.176;6.738;2023-02-15T02:11:23;65.65;;;60.45;;
53267;SDS011;39156;51.176;6.738;2023-02-15T02:13:49;64.10;;;59.05;;
53267;SDS011;39156;51.176;6.738;2023-02-15T02:16:20;64.13;;;59.08;;
53267;SDS011;39156;51.176;6.738;2023-02-15T02:19:09;64.03;;;58.92;;
53267;SDS011;39156;51.176;6.738;2023-02-15T02:25:04;64.03;;;58.83;;
53267;SDS011;39156;51.176;6.738;2023-02-15T02:27:57;65.28;;;60.08;;
53267;SDS011;39156;51.176;6.738;2023-02-15T02:31:07;62.63;;;57.70;;
53267;SDS011;39156;51.176;6.738;2023-02-15T02:36:59;64.63;;;59.75;;
53267;SDS011;39156;51.176;6.738;2023-02-15T02:39:35;64.03;;;58.92;;
53267;SDS011;39156;51.176;6.738;2023-02-15T02:42:35;63.15;;;58.00;;
53267;SDS011;39156;51.176;6.738;2023-02-15T02:50:15;63.92;;;58.83;;
53267;SDS011;39156;51.176;6.738;2023-02-15T02:52:48;65.00;;;59.63;;
53267;SDS011;39156;51.176;6.738;2023-02-15T03:00:36;67.07;;;61.70;;
53267;SDS011;39156;51.176;6.738;2023-02-15T03:03:34;63.35;;;58.40;;
53267;SDS011;39156;51.176;6.738;2023-02-15T03:06:11;65.43;;;60.15;;
53267;SDS011;39156;51.176;6.738;2023-02-15T03:08:44;64.93;;;59.70;;
53267;SDS011;39156;51.176;6.738;2023-02-15T03:11:14;66.32;;;61.13;;
53267;SDS011;39156;51.176;6.738;2023-02-15T03:13:40;65.32;;;60.03;;
53267;SDS011;39156;51.176;6.738;2023-02-15T03:16:06;66.47;;;60.97;;
53267;SDS011;39156;51.176;6.738;2023-02-15T03:19:06;65.85;;;60.47;;
53267;SDS011;39156;51.176;6.738;2023-02-15T03:22:00;64.07;;;59.00;;
53267;SDS011;39156;51.176;6.738;2023-02-15T03:24:36;63.28;;;58.38;;
53267;SDS011;39156;51.176;6.738;2023-02-15T03:27:14;64.53;;;59.50;;
53267;SDS011;39156;51.176;6.738;2023-02-15T03:29:46;64.10;;;59.10;;
53267;SDS011;39156;51.176;6.738;2023-02-15T03:32:17;63.95;;;58.95;;
53267;SDS011;39156;51.176;6.738;2023-02-15T03:34:43;64.30;;;59.33;;
53267;SDS011;39156;51.176;6.738;2023-02-15T03:40:03;64.35;;;59.13;;
53267;SDS011;39156;51.176;6.738;2023-02-15T03:45:56;65.95;;;60.67;;
53267;SDS011;39156;51.176;6.738;2023-02-15T03:48:32;63.97;;;59.13;;
53267;SDS011;39156;51.176;6.738;2023-02-15T03:51:07;64.38;;;59.40;;
53267;SDS011;39156;51.176;6.738;2023-02-15T03:53:57;64.88;;;59.78;;
53267;SDS011;39156;51.176;6.738;2023-02-15T03:56:39;63.38;;;58.47;;
53267;SDS011;39156;51.176;6.738;2023-02-15T03:59:07;64.32;;;59.40;;
53267;SDS011;39156;51.176;6.738;2023-02-15T04:02:01;64.97;;;59.67;;
53267;SDS011;39156;51.176;6.738;2023-02-15T04:04:45;61.83;;;56.95;;
53267;SDS011;39156;51.176;6.738;2023-02-15T04:07:12;63.90;;;58.90;;
53267;SDS011;39156;51.176;6.738;2023-02-15T04:09:38;62.35;;;57.55;;
53267;SDS011;39156;51.176;6.738;2023-02-15T04:12:22;62.30;;;57.30;;
53267;SDS011;39156;51.176;6.738;2023-02-15T04:14:48;63.30;;;58.38;;
53267;SDS011;39156;51.176;6.738;2023-02-15T04:17:32;65.20;;;60.13;;
53267;SDS011;39156;51.176;6.738;2023-02-15T04:19:58;64.93;;;59.70;;
53267;SDS011;39156;51.176;6.738;2023-02-15T04:22:43;63.47;;;58.47;;
53267;SDS011;39156;51.176;6.738;2023-02-15T04:25:27;63.50;;;58.58;;
53267;SDS011;39156;51.176;6.738;2023-02-15T04:27:53;65.32;;;60.00;;
53267;SDS011;39156;51.176;6.738;2023-02-15T04:30:24;63.13;;;58.08;;
53267;SDS011;39156;51.176;6.738;2023-02-15T04:32:51;64.35;;;59.45;;
53267;SDS011;39156;51.176;6.738;2023-02-15T04:35:18;65.00;;;59.80;;
53267;SDS011;39156;51.176;6.738;2023-02-15T04:37:44;63.38;;;58.47;;
53267;SDS011;39156;51.176;6.738;2023-02-15T04:40:11;62.97;;;57.97;;
53267;SDS011;39156;51.176;6.738;2023-02-15T04:42:39;63.30;;;58.30;;
53267;SDS011;39156;51.176;6.738;2023-02-15T04:45:05;64.65;;;59.60;;
53267;SDS011;39156;51.176;6.738;2023-02-15T04:47:31;64.40;;;59.35;;
53267;SDS011;39156;51.176;6.738;2023-02-15T04:49:58;63.55;;;58.40;;
53267;SDS011;39156;51.176;6.738;2023-02-15T04:52:23;65.18;;;59.97;;
53267;SDS011;39156;51.176;6.738;2023-02-15T04:54:49;64.75;;;59.70;;
53267;SDS011;39156;51.176;6.738;2023-02-15T04:57:15;65.05;;;59.90;;
53267;SDS011;39156;51.176;6.738;2023-02-15T04:59:40;66.50;;;61.08;;
53267;SDS011;39156;51.176;6.738;2023-02-15T05:02:06;66.47;;;61.20;;
53267;SDS011;39156;51.176;6.738;2023-02-15T05:04:32;66.43;;;60.92;;
53267;SDS011;39156;51.176;6.738;2023-02-15T05:06:57;66.07;;;60.55;;
53267;SDS011;39156;51.176;6.738;2023-02-15T05:09:23;66.10;;;60.60;;
53267;SDS011;39156;51.176;6.738;2023-02-15T05:11:49;66.60;;;61.22;;
53267;SDS011;39156;51.176;6.738;2023-02-15T05:14:14;63.13;;;58.17;;
53267;SDS011;39156;51.176;6.738;2023-02-15T05:16:40;64.60;;;59.42;;
53267;SDS011;39156;51.176;6.738;2023-02-15T05:19:06;64.10;;;59.10;;
53267;SDS011;39156;51.176;6.738;2023-02-15T05:21:32;63.30;;;58.35;;
53267;SDS011;39156;51.176;6.738;2023-02-15T05:23:58;65.75;;;60.55;;
53267;SDS011;39156;51.176;6.738;2023-02-15T05:26:24;64.82;;;59.72;;
53267;SDS011;39156;51.176;6.738;2023-02-15T05:29:09;67.60;;;62.20;;
53267;SDS011;39156;51.176;6.738;2023-02-15T05:31:35;64.80;;;59.60;;
53267;SDS011;39156;51.176;6.738;2023-02-15T05:34:01;65.50;;;60.25;;
53267;SDS011;39156;51.176;6.738;2023-02-15T05:36:27;67.85;;;61.55;;
53267;SDS011;39156;51.176;6.738;2023-02-15T05:38:53;67.28;;;61.78;;
53267;SDS011;39156;51.176;6.738;2023-02-15T05:41:19;63.83;;;58.78;;
53267;SDS011;39156;51.176;6.738;2023-02-15T05:43:45;63.35;;;58.33;;
53267;SDS011;39156;51.176;6.738;2023-02-15T05:46:11;66.85;;;61.50;;
53267;SDS011;39156;51.176;6.738;2023-02-15T05:48:37;64.55;;;59.58;;
53267;SDS011;39156;51.176;6.738;2023-02-15T05:51:04;66.28;;;60.88;;
53267;SDS011;39156;51.176;6.738;2023-02-15T05:53:37;64.78;;;59.75;;
53267;SDS011;39156;51.176;6.738;2023-02-15T05:56:05;66.60;;;61.40;;
53267;SDS011;39156;51.176;6.738;2023-02-15T05:58:37;64.55;;;59.28;;
53267;SDS011;39156;51.176;6.738;2023-02-15T06:01:09;62.97;;;58.17;;
53267;SDS011;39156;51.176;6.738;2023-02-15T06:03:39;63.30;;;58.40;;
53267;SDS011;39156;51.176;6.738;2023-02-15T06:06:05;63.60;;;58.60;;
53267;SDS011;39156;51.176;6.738;2023-02-15T06:08:32;61.75;;;56.88;;
53267;SDS011;39156;51.176;6.738;2023-02-15T06:11:00;66.72;;;61.55;;
53267;SDS011;39156;51.176;6.738;2023-02-15T06:13:26;64.00;;;58.92;;
53267;SDS011;39156;51.176;6.738;2023-02-15T06:15:52;63.55;;;58.55;;
53267;SDS011;39156;51.176;6.738;2023-02-15T06:18:17;63.13;;;58.15;;
53267;SDS011;39156;51.176;6.738;2023-02-15T06:20:46;61.67;;;56.95;;
53267;SDS011;39156;51.176;6.738;2023-02-15T06:23:12;63.28;;;58.33;;
53267;SDS011;39156;51.176;6.738;2023-02-15T06:25:39;63.65;;;58.75;;
53267;SDS011;39156;51.176;6.738;2023-02-15T06:28:05;62.58;;;57.65;;
53267;SDS011;39156;51.176;6.738;2023-02-15T06:30:31;61.85;;;57.15;;
53267;SDS011;39156;51.176;6.738;2023-02-15T06:32:57;61.95;;;57.28;;
53267;SDS011;39156;51.176;6.738;2023-02-15T06:35:22;62.28;;;57.47;;
53267;SDS011;39156;51.176;6.738;2023-02-15T06:37:48;64.28;;;59.35;;
53267;SDS011;39156;51.176;6.738;2023-02-15T06:40:14;62.58;;;57.67;;
53267;SDS011;39156;51.176;6.738;2023-02-15T06:42:41;63.03;;;58.10;;
53267;SDS011;39156;51.176;6.738;2023-02-15T06:45:07;62.35;;;57.65;;
53267;SDS011;39156;51.176;6.738;2023-02-15T06:47:34;62.50;;;57.67;;
53267;SDS011;39156;51.176;6.738;2023-02-15T06:50:00;63.70;;;58.80;;
53267;SDS011;39156;51.176;6.738;2023-02-15T06:52:25;63.60;;;58.58;;
53267;SDS011;39156;51.176;6.738;2023-02-15T06:54:51;62.70;;;57.97;;
53267;SDS011;39156;51.176;6.738;2023-02-15T06:57:17;65.15;;;60.05;;
53267;SDS011;39156;51.176;6.738;2023-02-15T06:59:42;64.40;;;59.35;;
53267;SDS011;39156;51.176;6.738;2023-02-15T07:02:09;62.92;;;58.03;;
53267;SDS011;39156;51.176;6.738;2023-02-15T07:04:39;65.13;;;60.03;;
53267;SDS011;39156;51.176;6.738;2023-02-15T07:07:07;63.40;;;58.50;;
53267;SDS011;39156;51.176;6.738;2023-02-15T07:09:35;64.80;;;59.97;;
53267;SDS011;39156;51.176;6.738;2023-02-15T07:12:01;61.92;;;57.22;;
53267;SDS011;39156;51.176;6.738;2023-02-15T07:14:46;61.80;;;57.10;;
53267;SDS011;39156;51.176;6.738;2023-02-15T07:17:11;62.80;;;58.10;;
53267;SDS011;39156;51.176;6.738;2023-02-15T07:19:37;62.20;;;57.60;;
53267;SDS011;39156;51.176;6.738;2023-02-15T07:22:03;63.30;;;58.55;;
53267;SDS011;39156;51.176;6.738;2023-02-15T07:24:29;63.25;;;58.55;;
53267;SDS011;39156;51.176;6.738;2023-02-15T07:26:56;63.15;;;58.15;;
53267;SDS011;39156;51.176;6.738;2023-02-15T07:29:22;63.17;;;58.28;;
53267;SDS011;39156;51.176;6.738;2023-02-15T07:31:48;61.67;;;56.78;;
53267;SDS011;39156;51.176;6.738;2023-02-15T07:34:14;61.00;;;56.25;;
53267;SDS011;39156;51.176;6.738;2023-02-15T07:36:40;61.17;;;56.55;;
53267;SDS011;39156;51.176;6.738;2023-02-15T07:39:08;62.33;;;57.38;;
53267;SDS011;39156;51.176;6.738;2023-02-15T07:41:35;61.38;;;56.78;;
53267;SDS011;39156;51.176;6.738;2023-02-15T07:44:00;59.90;;;55.40;;
53267;SDS011;39156;51.176;6.738;2023-02-15T07:46:26;61.10;;;56.30;;
53267;SDS011;39156;51.176;6.738;2023-02-15T07:48:52;59.03;;;54.58;;
53267;SDS011;39156;51.176;6.738;2023-02-15T07:51:18;59.55;;;55.03;;
53267;SDS011;39156;51.176;6.738;2023-02-15T07:53:44;61.38;;;56.67;;
53267;SDS011;39156;51.176;6.738;2023-02-15T07:56:11;60.17;;;55.70;;
53267;SDS011;39156;51.176;6.738;2023-02-15T07:58:38;58.97;;;54.67;;
53267;SDS011;39156;51.176;6.738;2023-02-15T08:01:17;59.22;;;54.85;;
53267;SDS011;39156;51.176;6.738;2023-02-15T08:03:53;60.42;;;55.85;;
53267;SDS011;39156;51.176;6.738;2023-02-15T08:06:20;58.65;;;54.22;;
53267;SDS011;39156;51.176;6.738;2023-02-15T08:08:47;60.20;;;55.53;;
53267;SDS011;39156;51.176;6.738;2023-02-15T08:11:17;60.30;;;55.72;;
53267;SDS011;39156;51.176;6.738;2023-02-15T08:19:21;58.15;;;53.88;;
53267;SDS011;39156;51.176;6.738;2023-02-15T08:22:02;57.67;;;53.38;;
53267;SDS011;39156;51.176;6.738;2023-02-15T08:24:36;59.38;;;54.92;;
53267;SDS011;39156;51.176;6.738;2023-02-15T08:27:02;57.38;;;53.17;;
53267;SDS011;39156;51.176;6.738;2023-02-15T08:29:30;58.47;;;54.03;;
53267;SDS011;39156;51.176;6.738;2023-02-15T08:31:57;57.30;;;52.83;;
53267;SDS011;39156;51.176;6.738;2023-02-15T08:34:27;58.10;;;53.90;;
53267;SDS011;39156;51.176;6.738;2023-02-15T08:36:54;54.45;;;50.53;;
53267;SDS011;39156;51.176;6.738;2023-02-15T08:39:20;54.67;;;50.65;;
53267;SDS011;39156;51.176;6.738;2023-02-15T08:41:46;52.35;;;48.75;;
53267;SDS011;39156;51.176;6.738;2023-02-15T08:44:14;53.80;;;49.80;;
53267;SDS011;39156;51.176;6.738;2023-02-15T08:46:42;52.95;;;49.05;;
53267;SDS011;39156;51.176;6.738;2023-02-15T08:49:17;52.22;;;48.33;;
53267;SDS011;39156;51.176;6.738;2023-02-15T08:51:46;52.03;;;48.17;;
53267;SDS011;39156;51.176;6.738;2023-02-15T08:54:15;52.92;;;49.03;;
53267;SDS011;39156;51.176;6.738;2023-02-15T08:56:44;52.70;;;49.05;;
53267;SDS011;39156;51.176;6.738;2023-02-15T08:59:17;50.47;;;46.97;;
53267;SDS011;39156;51.176;6.738;2023-02-15T09:01:48;49.20;;;45.85;;
53267;SDS011;39156;51.176;6.738;2023-02-15T09:04:16;48.58;;;45.17;;
53267;SDS011;39156;51.176;6.738;2023-02-15T09:06:43;47.90;;;44.30;;
53267;SDS011;39156;51.176;6.738;2023-02-15T09:09:11;48.08;;;44.30;;
53267;SDS011;39156;51.176;6.738;2023-02-15T09:11:38;50.25;;;46.60;;
53267;SDS011;39156;51.176;6.738;2023-02-15T09:14:07;47.67;;;44.25;;
53267;SDS011;39156;51.176;6.738;2023-02-15T09:16:39;45.33;;;42.15;;
53267;SDS011;39156;51.176;6.738;2023-02-15T09:19:06;46.70;;;43.20;;
53267;SDS011;39156;51.176;6.738;2023-02-15T09:21:36;44.95;;;41.85;;
53267;SDS011;39156;51.176;6.738;2023-02-15T09:24:05;45.53;;;42.25;;
53267;SDS011;39156;51.176;6.738;2023-02-15T09:26:34;44.47;;;41.40;;
53267;SDS011;39156;51.176;6.738;2023-02-15T09:29:02;43.97;;;40.67;;
53267;SDS011;39156;51.176;6.738;2023-02-15T09:31:29;44.03;;;40.83;;
53267;SDS011;39156;51.176;6.738;2023-02-15T09:34:03;43.20;;;40.25;;
53267;SDS011;39156;51.176;6.738;2023-02-15T09:36:33;44.33;;;41.33;;
53267;SDS011;39156;51.176;6.738;2023-02-15T09:44:42;42.47;;;39.58;;
53267;SDS011;39156;51.176;6.738;2023-02-15T09:59:10;44.05;;;41.05;;
53267;SDS011;39156;51.176;6.738;2023-02-15T10:09:07;43.72;;;40.75;;
53267;SDS011;39156;51.176;6.738;2023-02-15T10:14:27;42.40;;;39.53;;
53267;SDS011;39156;51.176;6.738;2023-02-15T10:28:53;43.10;;;40.10;;
53267;SDS011;39156;51.176;6.738;2023-02-15T10:31:33;43.50;;;40.50;;
53267;SDS011;39156;51.176;6.738;2023-02-15T10:34:31;44.30;;;41.30;;
53267;SDS011;39156;51.176;6.738;2023-02-15T10:39:59;42.65;;;39.55;;
53267;SDS011;39156;51.176;6.738;2023-02-15T10:48:54;43.72;;;40.38;;
53267;SDS011;39156;51.176;6.738;2023-02-15T10:56:58;45.55;;;42.42;;
53267;SDS011;39156;51.176;6.738;2023-02-15T11:03:16;43.15;;;40.17;;
53267;SDS011;39156;51.176;6.738;2023-02-15T11:06:12;43.80;;;40.83;;
53267;SDS011;39156;51.176;6.738;2023-02-15T11:08:46;45.85;;;42.60;;
53267;SDS011;39156;51.176;6.738;2023-02-15T11:11:23;42.88;;;39.97;;
53267;SDS011;39156;51.176;6.738;2023-02-15T11:13:56;43.15;;;39.88;;
53267;SDS011;39156;51.176;6.738;2023-02-15T11:16:37;45.90;;;42.63;;
53267;SDS011;39156;51.176;6.738;2023-02-15T11:22:13;45.08;;;41.80;;
53267;SDS011;39156;51.176;6.738;2023-02-15T11:24:41;46.90;;;43.50;;
53267;SDS011;39156;51.176;6.738;2023-02-15T11:29:38;45.75;;;42.55;;
53267;SDS011;39156;51.176;6.738;2023-02-15T11:32:30;44.85;;;41.95;;
53267;SDS011;39156;51.176;6.738;2023-02-15T11:35:03;48.70;;;44.42;;
53267;SDS011;39156;51.176;6.738;2023-02-15T11:37:57;48.47;;;45.17;;
53267;SDS011;39156;51.176;6.738;2023-02-15T11:40:36;46.78;;;43.53;;
53267;SDS011;39156;51.176;6.738;2023-02-15T11:43:38;49.13;;;45.45;;
53267;SDS011;39156;51.176;6.738;2023-02-15T11:46:10;47.25;;;44.10;;
53267;SDS011;39156;51.176;6.738;2023-02-15T11:48:38;45.88;;;42.67;;
53267;SDS011;39156;51.176;6.738;2023-02-15T11:51:04;46.67;;;43.47;;
53267;SDS011;39156;51.176;6.738;2023-02-15T11:53:35;48.08;;;44.70;;
53267;SDS011;39156;51.176;6.738;2023-02-15T11:56:02;47.60;;;44.30;;
53267;SDS011;39156;51.176;6.738;2023-02-15T11:58:40;49.17;;;45.58;;
53267;SDS011;39156;51.176;6.738;2023-02-15T12:01:38;44.72;;;41.72;;
53267;SDS011;39156;51.176;6.738;2023-02-15T12:04:22;48.50;;;45.20;;
53267;SDS011;39156;51.176;6.738;2023-02-15T12:09:43;48.28;;;44.75;;
53267;SDS011;39156;51.176;6.738;2023-02-15T12:12:41;49.22;;;45.03;;
53267;SDS011;39156;51.176;6.738;2023-02-15T12:15:08;48.47;;;44.88;;
53267;SDS011;39156;51.176;6.738;2023-02-15T12:17:50;47.95;;;44.65;;
53267;SDS011;39156;51.176;6.738;2023-02-15T12:22:53;50.35;;;46.65;;
53267;SDS011;39156;51.176;6.738;2023-02-15T12:25:40;47.28;;;43.55;;
53267;SDS011;39156;51.176;6.738;2023-02-15T12:28:24;48.25;;;44.75;;
53267;SDS011;39156;51.176;6.738;2023-02-15T12:31:26;47.08;;;43.63;;
53267;SDS011;39156;51.176;6.738;2023-02-15T12:33:57;46.05;;;43.03;;
53267;SDS011;39156;51.176;6.738;2023-02-15T12:36:29;47.53;;;44.03;;
53267;SDS011;39156;51.176;6.738;2023-02-15T12:41:45;49.20;;;45.90;;
53267;SDS011;39156;51.176;6.738;2023-02-15T12:44:23;45.70;;;42.60;;
53267;SDS011;39156;51.176;6.738;2023-02-15T12:47:03;48.92;;;45.33;;
53267;SDS011;39156;51.176;6.738;2023-02-15T12:49:44;45.60;;;42.55;;
53267;SDS011;39156;51.176;6.738;2023-02-15T12:52:42;45.33;;;42.13;;
53267;SDS011;39156;51.176;6.738;2023-02-15T12:58:04;45.38;;;42.03;;
53267;SDS011;39156;51.176;6.738;2023-02-15T13:00:43;45.55;;;42.55;;
53267;SDS011;39156;51.176;6.738;2023-02-15T13:03:16;47.78;;;44.20;;
53267;SDS011;39156;51.176;6.738;2023-02-15T13:05:46;49.67;;;44.85;;
53267;SDS011;39156;51.176;6.738;2023-02-15T13:09:05;47.25;;;43.78;;
53267;SDS011;39156;51.176;6.738;2023-02-15T13:11:21;46.15;;;42.78;;
53267;SDS011;39156;51.176;6.738;2023-02-15T13:13:53;45.70;;;42.28;;
53267;SDS011;39156;51.176;6.738;2023-02-15T13:16:24;45.75;;;42.47;;
53267;SDS011;39156;51.176;6.738;2023-02-15T13:19:02;46.22;;;43.03;;
53267;SDS011;39156;51.176;6.738;2023-02-15T13:21:37;46.42;;;43.15;;
53267;SDS011;39156;51.176;6.738;2023-02-15T13:24:10;45.70;;;42.55;;
53267;SDS011;39156;51.176;6.738;2023-02-15T13:27:02;45.10;;;41.90;;
53267;SDS011;39156;51.176;6.738;2023-02-15T13:29:29;46.27;;;43.07;;
53267;SDS011;39156;51.176;6.738;2023-02-15T13:32:01;45.33;;;42.05;;
53267;SDS011;39156;51.176;6.738;2023-02-15T13:34:58;46.22;;;43.03;;
53267;SDS011;39156;51.176;6.738;2023-02-15T13:37:34;46.97;;;43.50;;
53267;SDS011;39156;51.176;6.738;2023-02-15T13:40:33;45.10;;;41.60;;
53267;SDS011;39156;51.176;6.738;2023-02-15T13:43:15;47.53;;;44.13;;
53267;SDS011;39156;51.176;6.738;2023-02-15T13:51:35;45.60;;;42.38;;
53267;SDS011;39156;51.176;6.738;2023-02-15T13:54:31;44.53;;;41.50;;
53267;SDS011;39156;51.176;6.738;2023-02-15T13:57:32;46.83;;;43.38;;
53267;SDS011;39156;51.176;6.738;2023-02-15T14:00:26;43.63;;;40.45;;
53267;SDS011;39156;51.176;6.738;2023-02-15T14:06:58;45.30;;;41.95;;
53267;SDS011;39156;51.176;6.738;2023-02-15T14:10:16;45.88;;;42.63;;
53267;SDS011;39156;51.176;6.738;2023-02-15T14:13:39;45.88;;;42.15;;
53267;SDS011;39156;51.176;6.738;2023-02-15T14:16:30;45.97;;;42.78;;
53267;SDS011;39156;51.176;6.738;2023-02-15T14:24:33;46.28;;;43.13;;
53267;SDS011;39156;51.176;6.738;2023-02-15T14:34:58;45.65;;;42.42;;
53267;SDS011;39156;51.176;6.738;2023-02-15T14:37:29;46.00;;;42.83;;
53267;SDS011;39156;51.176;6.738;2023-02-15T14:40:12;46.75;;;43.35;;
53267;SDS011;39156;51.176;6.738;2023-02-15T14:48:41;45.45;;;42.25;;
53267;SDS011;39156;51.176;6.738;2023-02-15T14:54:07;45.72;;;42.50;;
53267;SDS011;39156;51.176;6.738;2023-02-15T15:02:26;43.85;;;40.85;;
53267;SDS011;39156;51.176;6.738;2023-02-15T15:04:56;47.13;;;43.85;;
53267;SDS011;39156;51.176;6.738;2023-02-15T15:07:48;44.53;;;41.22;;
53267;SDS011;39156;51.176;6.738;2023-02-15T15:23:28;44.60;;;41.60;;
53267;SDS011;39156;51.176;6.738;2023-02-15T15:28:52;45.88;;;42.78;;
53267;SDS011;39156;51.176;6.738;2023-02-15T15:40:04;44.15;;;41.05;;
53267;SDS011;39156;51.176;6.738;2023-02-15T15:48:46;44.50;;;41.25;;
53267;SDS011;39156;51.176;6.738;2023-02-15T15:51:33;45.83;;;42.53;;
53267;SDS011;39156;51.176;6.738;2023-02-15T15:53:58;45.15;;;42.00;;
53267;SDS011;39156;51.176;6.738;2023-02-15T15:56:28;43.60;;;40.28;;
53267;SDS011;39156;51.176;6.738;2023-02-15T15:59:02;46.60;;;42.97;;
53267;SDS011;39156;51.176;6.738;2023-02-15T16:01:36;43.67;;;40.55;;
53267;SDS011;39156;51.176;6.738;2023-02-15T16:04:10;45.20;;;42.20;;
53267;SDS011;39156;51.176;6.738;2023-02-15T16:06:57;44.28;;;41.17;;
53267;SDS011;39156;51.176;6.738;2023-02-15T16:09:38;47.25;;;43.70;;
53267;SDS011;39156;51.176;6.738;2023-02-15T16:12:04;45.10;;;41.83;;
53267;SDS011;39156;51.176;6.738;2023-02-15T16:14:39;43.80;;;40.85;;
53267;SDS011;39156;51.176;6.738;2023-02-15T16:17:12;46.42;;;43.20;;
53267;SDS011;39156;51.176;6.738;2023-02-15T16:19:45;45.22;;;42.15;;
53267;SDS011;39156;51.176;6.738;2023-02-15T16:22:13;45.93;;;42.70;;
53267;SDS011;39156;51.176;6.738;2023-02-15T16:24:48;47.35;;;43.97;;
53267;SDS011;39156;51.176;6.738;2023-02-15T16:35:40;45.42;;;42.33;;
53267;SDS011;39156;51.176;6.738;2023-02-15T16:41:12;45.33;;;42.05;;
53267;SDS011;39156;51.176;6.738;2023-02-15T16:43:41;47.85;;;44.38;;
53267;SDS011;39156;51.176;6.738;2023-02-15T16:46:11;47.78;;;43.78;;
53267;SDS011;39156;51.176;6.738;2023-02-15T16:48:44;47.83;;;44.63;;
53267;SDS011;39156;51.176;6.738;2023-02-15T16:51:24;45.88;;;42.63;;
53267;SDS011;39156;51.176;6.738;2023-02-15T16:53:54;48.78;;;45.42;;
53267;SDS011;39156;51.176;6.738;2023-02-15T16:56:26;46.08;;;42.70;;
53267;SDS011;39156;51.176;6.738;2023-02-15T16:58:57;49.22;;;45.83;;
53267;SDS011;39156;51.176;6.738;2023-02-15T17:01:27;47.05;;;43.75;;
53267;SDS011;39156;51.176;6.738;2023-02-15T17:09:48;47.78;;;44.47;;
53267;SDS011;39156;51.176;6.738;2023-02-15T17:12:53;46.58;;;43.38;;
53267;SDS011;39156;51.176;6.738;2023-02-15T17:20:39;47.72;;;44.30;;
53267;SDS011;39156;51.176;6.738;2023-02-15T17:23:17;46.45;;;43.10;;
53267;SDS011;39156;51.176;6.738;2023-02-15T17:25:56;47.58;;;44.35;;
53267;SDS011;39156;51.176;6.738;2023-02-15T17:28:27;45.20;;;42.10;;
53267;SDS011;39156;51.176;6.738;2023-02-15T17:30:56;45.53;;;42.42;;
53267;SDS011;39156;51.176;6.738;2023-02-15T17:36:02;48.25;;;44.85;;
53267;SDS011;39156;51.176;6.738;2023-02-15T17:38:58;49.03;;;45.72;;
53267;SDS011;39156;51.176;6.738;2023-02-15T17:41:44;45.05;;;42.05;;
53267;SDS011;39156;51.176;6.738;2023-02-15T17:44:12;46.63;;;42.95;;
53267;SDS011;39156;51.176;6.738;2023-02-15T17:46:40;48.47;;;45.25;;
53267;SDS011;39156;51.176;6.738;2023-02-15T17:49:11;46.08;;;42.88;;
53267;SDS011;39156;51.176;6.738;2023-02-15T17:51:49;45.05;;;41.95;;
53267;SDS011;39156;51.176;6.738;2023-02-15T17:54:14;46.67;;;43.28;;
53267;SDS011;39156;51.176;6.738;2023-02-15T17:56:58;45.83;;;42.50;;
53267;SDS011;39156;51.176;6.738;2023-02-15T17:59:30;47.13;;;43.83;;
53267;SDS011;39156;51.176;6.738;2023-02-15T18:01:56;47.05;;;43.58;;
53267;SDS011;39156;51.176;6.738;2023-02-15T18:04:40;46.70;;;43.40;;
53267;SDS011;39156;51.176;6.738;2023-02-15T18:07:24;49.22;;;45.83;;
53267;SDS011;39156;51.176;6.738;2023-02-15T18:10:16;50.30;;;46.58;;
53267;SDS011;39156;51.176;6.738;2023-02-15T18:13:01;47.55;;;43.85;;
53267;SDS011;39156;51.176;6.738;2023-02-15T18:15:28;47.75;;;44.50;;
53267;SDS011;39156;51.176;6.738;2023-02-15T18:17:54;48.75;;;45.45;;
53267;SDS011;39156;51.176;6.738;2023-02-15T18:20:21;47.47;;;44.13;;
53267;SDS011;39156;51.176;6.738;2023-02-15T18:23:00;47.78;;;44.47;;